sensor_id;sensor_type;location;lat;lon;timestamp;pressure;altitude;pressure_sealevel;temperature;humidity
45050;BME280;61798;48.048;-1.928;2023-08-31T00:01:52;100536.53;;;12.82;100.00
45050;BME280;61798;48.048;-1.928;2023-08-31T00:03:59;100535.47;;;12.89;100.00
45050;BME280;61798;48.048;-1.928;2023-08-31T00:06:10;100499.94;;;12.67;100.00
45050;BME280;61798;48.048;-1.928;2023-08-31T00:08:17;100542.06;;;13.00;100.00
45050;BME280;61798;48.048;-1.928;2023-08-31T00:10:23;100506.94;;;12.82;100.00
45050;BME280;61798;48.048;-1.928;2023-08-31T00:12:32;100527.34;;;13.03;100.00
45050;BME280;61798;48.048;-1.928;2023-08-31T00:14:41;100494.34;;;12.68;100.00
45050;BME280;61798;48.048;-1.928;2023-08-31T00:16:48;100522.44;;;12.93;100.00
45050;BME280;61798;48.048;-1.928;2023-08-31T00:18:54;100503.59;;;12.93;100.00
45050;BME280;61798;48.048;-1.928;2023-08-31T00:21:01;100514.38;;;12.79;100.00
45050;BME280;61798;48.048;-1.928;2023-08-31T00:23:09;100496.66;;;12.51;100.00
45050;BME280;61798;48.048;-1.928;2023-08-31T00:25:16;100513.13;;;12.89;100.00
45050;BME280;61798;48.048;-1.928;2023-08-31T00:27:23;100495.13;;;12.83;100.00
45050;BME280;61798;48.048;-1.928;2023-08-31T00:29:30;100480.94;;;12.62;100.00
45050;BME280;61798;48.048;-1.928;2023-08-31T00:31:37;100510.81;;;12.99;100.00
45050;BME280;61798;48.048;-1.928;2023-08-31T00:33:43;100499.84;;;12.94;100.00
45050;BME280;61798;48.048;-1.928;2023-08-31T00:35:49;100487.63;;;12.98;100.00
45050;BME280;61798;48.048;-1.928;2023-08-31T00:37:57;100490.91;;;13.07;100.00
45050;BME280;61798;48.048;-1.928;2023-08-31T00:40:06;100471.09;;;12.95;100.00
45050;BME280;61798;48.048;-1.928;2023-08-31T00:42:16;100493.66;;;12.87;100.00
45050;BME280;61798;48.048;-1.928;2023-08-31T00:44:25;100505.84;;;12.96;100.00
45050;BME280;61798;48.048;-1.928;2023-08-31T00:46:33;100500.78;;;13.20;100.00
45050;BME280;61798;48.048;-1.928;2023-08-31T00:48:41;100487.16;;;13.15;100.00
45050;BME280;61798;48.048;-1.928;2023-08-31T00:50:48;100494.72;;;13.32;100.00
45050;BME280;61798;48.048;-1.928;2023-08-31T00:52:55;100469.34;;;13.14;100.00
45050;BME280;61798;48.048;-1.928;2023-08-31T00:55:04;100496.59;;;13.31;100.00
45050;BME280;61798;48.048;-1.928;2023-08-31T00:57:17;100497.06;;;13.21;100.00
45050;BME280;61798;48.048;-1.928;2023-08-31T00:59:24;100508.19;;;13.32;100.00
45050;BME280;61798;48.048;-1.928;2023-08-31T01:04:53;100506.09;;;13.41;100.00
45050;BME280;61798;48.048;-1.928;2023-08-31T01:09:54;100489.34;;;13.32;100.00
45050;BME280;61798;48.048;-1.928;2023-08-31T01:14:19;100482.34;;;13.24;100.00
45050;BME280;61798;48.048;-1.928;2023-08-31T01:16:31;100489.66;;;13.10;100.00
45050;BME280;61798;48.048;-1.928;2023-08-31T01:18:41;100485.94;;;13.11;100.00
45050;BME280;61798;48.048;-1.928;2023-08-31T01:21:40;100485.03;;;13.24;100.00
45050;BME280;61798;48.048;-1.928;2023-08-31T01:24:01;100482.63;;;13.09;100.00
45050;BME280;61798;48.048;-1.928;2023-08-31T01:26:07;100465.72;;;13.02;100.00
45050;BME280;61798;48.048;-1.928;2023-08-31T01:28:14;100476.34;;;13.22;100.00
45050;BME280;61798;48.048;-1.928;2023-08-31T01:30:22;100457.78;;;13.07;100.00
45050;BME280;61798;48.048;-1.928;2023-08-31T01:32:28;100457.66;;;13.34;100.00
45050;BME280;61798;48.048;-1.928;2023-08-31T01:34:34;100463.09;;;13.27;100.00
45050;BME280;61798;48.048;-1.928;2023-08-31T01:36:46;100472.97;;;13.40;100.00
45050;BME280;61798;48.048;-1.928;2023-08-31T01:39:35;100461.38;;;13.40;100.00
45050;BME280;61798;48.048;-1.928;2023-08-31T01:41:50;100460.03;;;13.56;100.00
45050;BME280;61798;48.048;-1.928;2023-08-31T01:43:58;100448.53;;;13.35;100.00
45050;BME280;61798;48.048;-1.928;2023-08-31T01:46:07;100458.22;;;13.43;100.00
45050;BME280;61798;48.048;-1.928;2023-08-31T01:48:17;100451.50;;;13.27;100.00
45050;BME280;61798;48.048;-1.928;2023-08-31T01:50:25;100460.13;;;13.36;100.00
45050;BME280;61798;48.048;-1.928;2023-08-31T01:52:32;100448.63;;;13.21;100.00
45050;BME280;61798;48.048;-1.928;2023-08-31T01:54:39;100461.41;;;13.26;100.00
45050;BME280;61798;48.048;-1.928;2023-08-31T01:56:46;100445.13;;;13.21;100.00
45050;BME280;61798;48.048;-1.928;2023-08-31T01:58:53;100454.72;;;13.42;100.00
45050;BME280;61798;48.048;-1.928;2023-08-31T02:01:00;100452.97;;;13.22;100.00
45050;BME280;61798;48.048;-1.928;2023-08-31T02:03:07;100459.41;;;13.15;100.00
45050;BME280;61798;48.048;-1.928;2023-08-31T02:05:15;100451.69;;;13.32;100.00
45050;BME280;61798;48.048;-1.928;2023-08-31T02:07:22;100441.31;;;13.36;100.00
45050;BME280;61798;48.048;-1.928;2023-08-31T02:09:28;100451.19;;;13.42;100.00
45050;BME280;61798;48.048;-1.928;2023-08-31T02:11:35;100422.41;;;13.42;100.00
45050;BME280;61798;48.048;-1.928;2023-08-31T02:13:45;100435.59;;;13.18;100.00
45050;BME280;61798;48.048;-1.928;2023-08-31T02:15:52;100437.34;;;13.38;100.00
45050;BME280;61798;48.048;-1.928;2023-08-31T02:18:00;100444.19;;;13.41;100.00
45050;BME280;61798;48.048;-1.928;2023-08-31T02:20:08;100433.28;;;13.29;100.00
45050;BME280;61798;48.048;-1.928;2023-08-31T02:22:15;100464.66;;;13.42;100.00
45050;BME280;61798;48.048;-1.928;2023-08-31T02:24:23;100456.38;;;13.43;100.00
45050;BME280;61798;48.048;-1.928;2023-08-31T02:26:30;100437.69;;;13.16;100.00
45050;BME280;61798;48.048;-1.928;2023-08-31T02:28:37;100452.81;;;13.17;100.00
45050;BME280;61798;48.048;-1.928;2023-08-31T02:30:45;100471.94;;;13.35;100.00
45050;BME280;61798;48.048;-1.928;2023-08-31T02:32:53;100453.59;;;13.18;100.00
45050;BME280;61798;48.048;-1.928;2023-08-31T02:35:01;100452.91;;;13.36;100.00
45050;BME280;61798;48.048;-1.928;2023-08-31T02:37:08;100437.97;;;13.01;100.00
45050;BME280;61798;48.048;-1.928;2023-08-31T02:39:15;100447.69;;;13.02;100.00
45050;BME280;61798;48.048;-1.928;2023-08-31T02:41:23;100423.16;;;12.78;100.00
45050;BME280;61798;48.048;-1.928;2023-08-31T02:43:30;100435.09;;;12.96;100.00
45050;BME280;61798;48.048;-1.928;2023-08-31T02:45:37;100472.03;;;13.14;100.00
45050;BME280;61798;48.048;-1.928;2023-08-31T02:47:43;100479.09;;;13.15;100.00
45050;BME280;61798;48.048;-1.928;2023-08-31T02:49:50;100455.09;;;13.07;100.00
45050;BME280;61798;48.048;-1.928;2023-08-31T02:51:58;100472.66;;;13.16;100.00
45050;BME280;61798;48.048;-1.928;2023-08-31T02:54:05;100469.34;;;13.14;100.00
45050;BME280;61798;48.048;-1.928;2023-08-31T02:56:12;100478.09;;;13.09;100.00
45050;BME280;61798;48.048;-1.928;2023-08-31T02:58:19;100446.72;;;12.89;100.00
45050;BME280;61798;48.048;-1.928;2023-08-31T03:00:26;100477.41;;;13.14;100.00
45050;BME280;61798;48.048;-1.928;2023-08-31T03:02:36;100456.38;;;13.04;100.00
45050;BME280;61798;48.048;-1.928;2023-08-31T03:04:43;100456.97;;;13.06;100.00
45050;BME280;61798;48.048;-1.928;2023-08-31T03:06:51;100453.69;;;13.04;100.00
45050;BME280;61798;48.048;-1.928;2023-08-31T03:08:58;100453.44;;;13.06;100.00
45050;BME280;61798;48.048;-1.928;2023-08-31T03:11:05;100451.00;;;13.04;100.00
45050;BME280;61798;48.048;-1.928;2023-08-31T03:13:12;100461.66;;;13.18;100.00
45050;BME280;61798;48.048;-1.928;2023-08-31T03:15:19;100473.94;;;13.14;100.00
45050;BME280;61798;48.048;-1.928;2023-08-31T03:17:26;100451.97;;;13.10;100.00
45050;BME280;61798;48.048;-1.928;2023-08-31T03:19:32;100421.59;;;13.03;100.00
45050;BME280;61798;48.048;-1.928;2023-08-31T03:21:39;100410.84;;;13.03;100.00
45050;BME280;61798;48.048;-1.928;2023-08-31T03:23:46;100413.97;;;12.99;100.00
45050;BME280;61798;48.048;-1.928;2023-08-31T03:25:53;100434.59;;;13.13;100.00
45050;BME280;61798;48.048;-1.928;2023-08-31T03:27:59;100445.97;;;13.15;100.00
45050;BME280;61798;48.048;-1.928;2023-08-31T03:30:07;100436.56;;;13.31;100.00
45050;BME280;61798;48.048;-1.928;2023-08-31T03:32:13;100433.72;;;13.19;100.00
45050;BME280;61798;48.048;-1.928;2023-08-31T03:34:20;100439.34;;;13.17;100.00
45050;BME280;61798;48.048;-1.928;2023-08-31T03:36:27;100426.94;;;13.16;100.00
45050;BME280;61798;48.048;-1.928;2023-08-31T03:38:34;100430.31;;;13.05;100.00
45050;BME280;61798;48.048;-1.928;2023-08-31T03:40:57;100425.75;;;12.98;100.00
45050;BME280;61798;48.048;-1.928;2023-08-31T03:43:03;100437.59;;;13.30;100.00
45050;BME280;61798;48.048;-1.928;2023-08-31T03:45:10;100419.88;;;13.15;100.00
45050;BME280;61798;48.048;-1.928;2023-08-31T03:47:18;100424.25;;;13.16;100.00
45050;BME280;61798;48.048;-1.928;2023-08-31T03:49:25;100432.06;;;13.25;100.00
45050;BME280;61798;48.048;-1.928;2023-08-31T03:51:32;100436.78;;;13.29;100.00
45050;BME280;61798;48.048;-1.928;2023-08-31T03:53:39;100435.78;;;13.24;100.00
45050;BME280;61798;48.048;-1.928;2023-08-31T03:55:47;100410.59;;;13.11;100.00
45050;BME280;61798;48.048;-1.928;2023-08-31T03:57:54;100428.50;;;13.31;100.00
45050;BME280;61798;48.048;-1.928;2023-08-31T04:00:02;100406.63;;;13.20;100.00
45050;BME280;61798;48.048;-1.928;2023-08-31T04:02:14;100412.13;;;13.32;100.00
45050;BME280;61798;48.048;-1.928;2023-08-31T04:04:21;100417.31;;;13.60;100.00
45050;BME280;61798;48.048;-1.928;2023-08-31T04:06:29;100417.91;;;13.69;100.00
45050;BME280;61798;48.048;-1.928;2023-08-31T04:08:35;100419.41;;;13.64;100.00
45050;BME280;61798;48.048;-1.928;2023-08-31T04:10:41;100421.19;;;13.71;100.00
45050;BME280;61798;48.048;-1.928;2023-08-31T04:12:48;100422.59;;;13.48;100.00
45050;BME280;61798;48.048;-1.928;2023-08-31T04:14:55;100406.31;;;13.36;100.00
45050;BME280;61798;48.048;-1.928;2023-08-31T04:17:02;100395.22;;;13.51;100.00
45050;BME280;61798;48.048;-1.928;2023-08-31T04:19:12;100428.34;;;13.51;100.00
45050;BME280;61798;48.048;-1.928;2023-08-31T04:21:19;100433.69;;;13.58;100.00
45050;BME280;61798;48.048;-1.928;2023-08-31T04:23:27;100431.38;;;13.69;100.00
45050;BME280;61798;48.048;-1.928;2023-08-31T04:25:33;100416.13;;;13.56;100.00
45050;BME280;61798;48.048;-1.928;2023-08-31T04:27:40;100433.84;;;13.70;100.00
45050;BME280;61798;48.048;-1.928;2023-08-31T04:29:48;100437.91;;;13.47;100.00
45050;BME280;61798;48.048;-1.928;2023-08-31T04:31:55;100445.50;;;13.64;100.00
45050;BME280;61798;48.048;-1.928;2023-08-31T04:34:02;100436.88;;;13.48;100.00
45050;BME280;61798;48.048;-1.928;2023-08-31T04:36:08;100427.78;;;13.42;100.00
45050;BME280;61798;48.048;-1.928;2023-08-31T04:38:15;100445.34;;;13.52;100.00
45050;BME280;61798;48.048;-1.928;2023-08-31T04:40:23;100439.63;;;13.41;100.00
45050;BME280;61798;48.048;-1.928;2023-08-31T04:42:31;100432.31;;;13.49;100.00
45050;BME280;61798;48.048;-1.928;2023-08-31T04:44:38;100421.38;;;13.43;100.00
45050;BME280;61798;48.048;-1.928;2023-08-31T04:46:45;100432.81;;;13.71;100.00
45050;BME280;61798;48.048;-1.928;2023-08-31T04:48:52;100417.41;;;13.46;100.00
45050;BME280;61798;48.048;-1.928;2023-08-31T04:51:00;100410.28;;;13.26;100.00
45050;BME280;61798;48.048;-1.928;2023-08-31T04:53:07;100426.50;;;13.52;100.00
45050;BME280;61798;48.048;-1.928;2023-08-31T04:55:15;100419.44;;;13.25;100.00
45050;BME280;61798;48.048;-1.928;2023-08-31T04:57:22;100426.88;;;13.23;100.00
45050;BME280;61798;48.048;-1.928;2023-08-31T04:59:30;100439.56;;;13.48;100.00
45050;BME280;61798;48.048;-1.928;2023-08-31T05:01:38;100428.66;;;13.36;100.00
45050;BME280;61798;48.048;-1.928;2023-08-31T05:03:45;100425.53;;;13.39;100.00
45050;BME280;61798;48.048;-1.928;2023-08-31T05:05:51;100414.97;;;13.45;100.00
45050;BME280;61798;48.048;-1.928;2023-08-31T05:07:58;100426.94;;;13.49;100.00
45050;BME280;61798;48.048;-1.928;2023-08-31T05:10:07;100422.78;;;13.53;100.00
45050;BME280;61798;48.048;-1.928;2023-08-31T05:12:14;100438.31;;;13.51;100.00
45050;BME280;61798;48.048;-1.928;2023-08-31T05:14:21;100400.94;;;13.36;100.00
45050;BME280;61798;48.048;-1.928;2023-08-31T05:16:28;100432.06;;;13.57;100.00
45050;BME280;61798;48.048;-1.928;2023-08-31T05:18:36;100442.66;;;13.52;100.00
45050;BME280;61798;48.048;-1.928;2023-08-31T05:20:46;100432.53;;;13.47;100.00
45050;BME280;61798;48.048;-1.928;2023-08-31T05:22:55;100429.25;;;13.38;100.00
45050;BME280;61798;48.048;-1.928;2023-08-31T05:25:02;100438.63;;;13.68;100.00
45050;BME280;61798;48.048;-1.928;2023-08-31T05:27:11;100401.81;;;13.29;100.00
45050;BME280;61798;48.048;-1.928;2023-08-31T05:29:19;100441.63;;;13.46;100.00
45050;BME280;61798;48.048;-1.928;2023-08-31T05:31:28;100424.50;;;13.40;100.00
45050;BME280;61798;48.048;-1.928;2023-08-31T05:33:34;100414.59;;;13.34;100.00
45050;BME280;61798;48.048;-1.928;2023-08-31T05:35:41;100427.59;;;13.44;100.00
45050;BME280;61798;48.048;-1.928;2023-08-31T05:37:49;100420.78;;;13.41;100.00
45050;BME280;61798;48.048;-1.928;2023-08-31T05:39:56;100429.88;;;13.40;100.00
45050;BME280;61798;48.048;-1.928;2023-08-31T05:42:01;100430.63;;;13.61;100.00
45050;BME280;61798;48.048;-1.928;2023-08-31T05:44:08;100440.94;;;13.64;100.00
45050;BME280;61798;48.048;-1.928;2023-08-31T05:46:17;100421.56;;;13.49;100.00
45050;BME280;61798;48.048;-1.928;2023-08-31T05:48:31;100444.47;;;13.58;100.00
45050;BME280;61798;48.048;-1.928;2023-08-31T05:50:38;100447.38;;;13.57;100.00
45050;BME280;61798;48.048;-1.928;2023-08-31T05:52:45;100431.78;;;13.66;100.00
45050;BME280;61798;48.048;-1.928;2023-08-31T05:54:53;100450.22;;;13.69;100.00
45050;BME280;61798;48.048;-1.928;2023-08-31T05:57:02;100444.59;;;13.70;100.00
45050;BME280;61798;48.048;-1.928;2023-08-31T05:59:10;100435.75;;;13.63;100.00
45050;BME280;61798;48.048;-1.928;2023-08-31T06:01:17;100424.84;;;13.51;100.00
45050;BME280;61798;48.048;-1.928;2023-08-31T06:03:24;100421.88;;;13.59;100.00
45050;BME280;61798;48.048;-1.928;2023-08-31T06:05:32;100443.38;;;13.73;100.00
45050;BME280;61798;48.048;-1.928;2023-08-31T06:07:39;100433.81;;;13.77;100.00
45050;BME280;61798;48.048;-1.928;2023-08-31T06:09:47;100425.94;;;13.76;100.00
45050;BME280;61798;48.048;-1.928;2023-08-31T06:11:55;100442.84;;;13.83;100.00
45050;BME280;61798;48.048;-1.928;2023-08-31T06:14:02;100445.44;;;13.97;100.00
45050;BME280;61798;48.048;-1.928;2023-08-31T06:16:11;100411.25;;;13.71;100.00
45050;BME280;61798;48.048;-1.928;2023-08-31T06:18:18;100427.22;;;13.73;100.00
45050;BME280;61798;48.048;-1.928;2023-08-31T06:20:25;100443.16;;;14.00;100.00
45050;BME280;61798;48.048;-1.928;2023-08-31T06:22:35;100420.88;;;13.86;100.00
45050;BME280;61798;48.048;-1.928;2023-08-31T06:24:43;100432.13;;;14.02;100.00
45050;BME280;61798;48.048;-1.928;2023-08-31T06:26:50;100447.19;;;14.10;100.00
45050;BME280;61798;48.048;-1.928;2023-08-31T06:28:57;100419.28;;;14.04;100.00
45050;BME280;61798;48.048;-1.928;2023-08-31T06:31:12;100460.53;;;14.23;100.00
45050;BME280;61798;48.048;-1.928;2023-08-31T06:33:20;100441.88;;;14.22;100.00
45050;BME280;61798;48.048;-1.928;2023-08-31T06:35:27;100442.28;;;14.25;100.00
45050;BME280;61798;48.048;-1.928;2023-08-31T06:37:33;100441.78;;;14.35;100.00
45050;BME280;61798;48.048;-1.928;2023-08-31T06:39:39;100425.81;;;14.34;100.00
45050;BME280;61798;48.048;-1.928;2023-08-31T06:41:46;100438.94;;;14.49;100.00
45050;BME280;61798;48.048;-1.928;2023-08-31T06:43:52;100442.31;;;14.44;100.00
45050;BME280;61798;48.048;-1.928;2023-08-31T06:45:59;100413.91;;;14.23;100.00
45050;BME280;61798;48.048;-1.928;2023-08-31T06:48:06;100422.38;;;14.26;100.00
45050;BME280;61798;48.048;-1.928;2023-08-31T06:50:12;100411.59;;;14.26;100.00
45050;BME280;61798;48.048;-1.928;2023-08-31T06:52:18;100421.25;;;14.34;100.00
45050;BME280;61798;48.048;-1.928;2023-08-31T06:54:24;100431.91;;;14.48;100.00
45050;BME280;61798;48.048;-1.928;2023-08-31T06:56:31;100448.91;;;14.48;100.00
45050;BME280;61798;48.048;-1.928;2023-08-31T06:58:37;100417.81;;;14.27;100.00
45050;BME280;61798;48.048;-1.928;2023-08-31T07:00:43;100444.63;;;14.41;100.00
45050;BME280;61798;48.048;-1.928;2023-08-31T07:02:49;100436.47;;;14.47;100.00
45050;BME280;61798;48.048;-1.928;2023-08-31T07:04:55;100425.69;;;14.47;100.00
45050;BME280;61798;48.048;-1.928;2023-08-31T07:07:09;100418.88;;;14.45;100.00
45050;BME280;61798;48.048;-1.928;2023-08-31T07:09:25;100443.72;;;14.66;100.00
45050;BME280;61798;48.048;-1.928;2023-08-31T07:11:37;100426.78;;;14.58;100.00
45050;BME280;61798;48.048;-1.928;2023-08-31T07:14:05;100453.16;;;14.75;100.00
45050;BME280;61798;48.048;-1.928;2023-08-31T07:16:25;100445.28;;;14.74;100.00
45050;BME280;61798;48.048;-1.928;2023-08-31T07:18:32;100457.41;;;14.83;100.00
45050;BME280;61798;48.048;-1.928;2023-08-31T07:20:41;100409.94;;;14.63;100.00
45050;BME280;61798;48.048;-1.928;2023-08-31T07:22:48;100456.59;;;15.20;100.00
45050;BME280;61798;48.048;-1.928;2023-08-31T07:24:54;100439.16;;;15.04;100.00
45050;BME280;61798;48.048;-1.928;2023-08-31T07:27:04;100467.38;;;15.20;100.00
45050;BME280;61798;48.048;-1.928;2023-08-31T07:29:13;100454.81;;;15.26;100.00
45050;BME280;61798;48.048;-1.928;2023-08-31T07:31:19;100441.28;;;15.14;100.00
45050;BME280;61798;48.048;-1.928;2023-08-31T07:33:25;100449.88;;;15.23;100.00
45050;BME280;61798;48.048;-1.928;2023-08-31T07:35:31;100436.91;;;15.32;100.00
45050;BME280;61798;48.048;-1.928;2023-08-31T07:37:37;100446.38;;;15.22;100.00
45050;BME280;61798;48.048;-1.928;2023-08-31T07:39:43;100466.97;;;15.36;100.00
45050;BME280;61798;48.048;-1.928;2023-08-31T07:41:52;100464.13;;;15.30;100.00
45050;BME280;61798;48.048;-1.928;2023-08-31T07:43:59;100466.13;;;15.35;100.00
45050;BME280;61798;48.048;-1.928;2023-08-31T07:46:05;100475.56;;;15.45;100.00
45050;BME280;61798;48.048;-1.928;2023-08-31T07:48:12;100491.63;;;15.39;100.00
45050;BME280;61798;48.048;-1.928;2023-08-31T07:50:17;100469.03;;;15.33;100.00
45050;BME280;61798;48.048;-1.928;2023-08-31T07:52:28;100500.69;;;15.57;100.00
45050;BME280;61798;48.048;-1.928;2023-08-31T07:54:35;100496.75;;;15.60;100.00
45050;BME280;61798;48.048;-1.928;2023-08-31T07:56:41;100487.56;;;15.61;100.00
45050;BME280;61798;48.048;-1.928;2023-08-31T07:58:47;100442.06;;;15.33;100.00
45050;BME280;61798;48.048;-1.928;2023-08-31T08:00:54;100478.91;;;15.71;100.00
45050;BME280;61798;48.048;-1.928;2023-08-31T08:03:01;100474.56;;;15.82;100.00
45050;BME280;61798;48.048;-1.928;2023-08-31T08:05:07;100481.16;;;15.86;100.00
45050;BME280;61798;48.048;-1.928;2023-08-31T08:07:13;100494.94;;;16.09;100.00
45050;BME280;61798;48.048;-1.928;2023-08-31T08:09:19;100496.38;;;16.11;100.00
45050;BME280;61798;48.048;-1.928;2023-08-31T08:11:25;100497.75;;;16.02;100.00
45050;BME280;61798;48.048;-1.928;2023-08-31T08:13:31;100481.31;;;16.03;100.00
45050;BME280;61798;48.048;-1.928;2023-08-31T08:15:37;100465.91;;;16.04;100.00
45050;BME280;61798;48.048;-1.928;2023-08-31T08:17:43;100477.81;;;16.15;100.00
45050;BME280;61798;48.048;-1.928;2023-08-31T08:19:52;100486.16;;;16.37;100.00
45050;BME280;61798;48.048;-1.928;2023-08-31T08:21:58;100469.59;;;16.22;100.00
45050;BME280;61798;48.048;-1.928;2023-08-31T08:24:04;100488.97;;;16.43;100.00
45050;BME280;61798;48.048;-1.928;2023-08-31T08:26:10;100475.09;;;16.39;100.00
45050;BME280;61798;48.048;-1.928;2023-08-31T08:28:16;100477.69;;;16.46;100.00
45050;BME280;61798;48.048;-1.928;2023-08-31T08:30:23;100472.06;;;16.35;100.00
45050;BME280;61798;48.048;-1.928;2023-08-31T08:32:40;100495.66;;;16.52;100.00
45050;BME280;61798;48.048;-1.928;2023-08-31T08:34:46;100469.22;;;16.42;100.00
45050;BME280;61798;48.048;-1.928;2023-08-31T08:36:52;100477.09;;;16.56;100.00
45050;BME280;61798;48.048;-1.928;2023-08-31T08:38:58;100481.69;;;16.55;100.00
45050;BME280;61798;48.048;-1.928;2023-08-31T08:41:05;100489.53;;;16.69;100.00
45050;BME280;61798;48.048;-1.928;2023-08-31T08:43:13;100472.41;;;16.51;100.00
45050;BME280;61798;48.048;-1.928;2023-08-31T08:45:20;100477.78;;;16.63;100.00
45050;BME280;61798;48.048;-1.928;2023-08-31T08:47:33;100488.34;;;16.77;100.00
45050;BME280;61798;48.048;-1.928;2023-08-31T08:49:39;100493.25;;;16.80;100.00
45050;BME280;61798;48.048;-1.928;2023-08-31T08:51:46;100487.63;;;16.81;100.00
45050;BME280;61798;48.048;-1.928;2023-08-31T08:53:54;100487.13;;;16.85;100.00
45050;BME280;61798;48.048;-1.928;2023-08-31T08:56:02;100490.53;;;16.92;100.00
45050;BME280;61798;48.048;-1.928;2023-08-31T08:58:08;100492.09;;;16.88;100.00
45050;BME280;61798;48.048;-1.928;2023-08-31T09:00:14;100493.38;;;16.85;100.00
45050;BME280;61798;48.048;-1.928;2023-08-31T09:02:27;100481.34;;;16.93;100.00
45050;BME280;61798;48.048;-1.928;2023-08-31T09:04:40;100471.00;;;16.90;100.00
45050;BME280;61798;48.048;-1.928;2023-08-31T09:07:02;100440.94;;;16.74;100.00
45050;BME280;61798;48.048;-1.928;2023-08-31T09:09:19;100493.06;;;17.11;100.00
45050;BME280;61798;48.048;-1.928;2023-08-31T09:11:25;100485.16;;;17.21;100.00
45050;BME280;61798;48.048;-1.928;2023-08-31T09:13:32;100487.66;;;17.40;100.00
45050;BME280;61798;48.048;-1.928;2023-08-31T09:15:47;100490.53;;;17.33;100.00
45050;BME280;61798;48.048;-1.928;2023-08-31T09:17:55;100472.75;;;17.38;100.00
45050;BME280;61798;48.048;-1.928;2023-08-31T09:20:02;100486.63;;;17.41;100.00
45050;BME280;61798;48.048;-1.928;2023-08-31T09:22:10;100486.50;;;17.36;100.00
45050;BME280;61798;48.048;-1.928;2023-08-31T09:24:16;100458.75;;;17.29;100.00
45050;BME280;61798;48.048;-1.928;2023-08-31T09:26:26;100484.00;;;17.47;100.00
45050;BME280;61798;48.048;-1.928;2023-08-31T09:28:32;100480.41;;;17.58;100.00
45050;BME280;61798;48.048;-1.928;2023-08-31T09:30:49;100493.69;;;17.60;100.00
45050;BME280;61798;48.048;-1.928;2023-08-31T09:32:56;100469.38;;;17.48;100.00
45050;BME280;61798;48.048;-1.928;2023-08-31T09:35:03;100455.81;;;17.30;100.00
45050;BME280;61798;48.048;-1.928;2023-08-31T09:37:09;100442.72;;;17.39;100.00
45050;BME280;61798;48.048;-1.928;2023-08-31T09:39:15;100499.81;;;17.67;100.00
45050;BME280;61798;48.048;-1.928;2023-08-31T09:41:21;100456.78;;;17.24;100.00
45050;BME280;61798;48.048;-1.928;2023-08-31T09:43:27;100500.44;;;17.57;100.00
45050;BME280;61798;48.048;-1.928;2023-08-31T09:45:34;100493.06;;;17.70;100.00
45050;BME280;61798;48.048;-1.928;2023-08-31T09:47:41;100461.13;;;17.54;100.00
45050;BME280;61798;48.048;-1.928;2023-08-31T09:49:47;100483.88;;;17.71;100.00
45050;BME280;61798;48.048;-1.928;2023-08-31T09:51:54;100477.13;;;17.73;100.00
45050;BME280;61798;48.048;-1.928;2023-08-31T09:54:02;100480.41;;;17.75;100.00
45050;BME280;61798;48.048;-1.928;2023-08-31T09:56:13;100494.97;;;17.86;100.00
45050;BME280;61798;48.048;-1.928;2023-08-31T09:58:23;100493.66;;;17.89;100.00
45050;BME280;61798;48.048;-1.928;2023-08-31T10:00:35;100496.78;;;17.98;100.00
45050;BME280;61798;48.048;-1.928;2023-08-31T10:02:43;100494.72;;;18.05;100.00
45050;BME280;61798;48.048;-1.928;2023-08-31T10:04:50;100458.41;;;17.89;100.00
45050;BME280;61798;48.048;-1.928;2023-08-31T10:06:58;100489.19;;;18.17;100.00
45050;BME280;61798;48.048;-1.928;2023-08-31T10:09:05;100489.63;;;18.26;100.00
45050;BME280;61798;48.048;-1.928;2023-08-31T10:11:13;100458.72;;;18.10;100.00
45050;BME280;61798;48.048;-1.928;2023-08-31T10:13:21;100474.97;;;18.27;100.00
45050;BME280;61798;48.048;-1.928;2023-08-31T10:15:31;100483.59;;;18.42;100.00
45050;BME280;61798;48.048;-1.928;2023-08-31T10:17:42;100478.06;;;18.54;100.00
45050;BME280;61798;48.048;-1.928;2023-08-31T10:19:51;100474.97;;;18.45;100.00
45050;BME280;61798;48.048;-1.928;2023-08-31T10:22:02;100444.25;;;18.39;100.00
45050;BME280;61798;48.048;-1.928;2023-08-31T10:24:09;100445.19;;;18.50;100.00
45050;BME280;61798;48.048;-1.928;2023-08-31T10:26:26;100476.38;;;18.70;100.00
45050;BME280;61798;48.048;-1.928;2023-08-31T10:28:40;100462.69;;;18.82;100.00
45050;BME280;61798;48.048;-1.928;2023-08-31T10:31:15;100461.47;;;18.73;100.00
45050;BME280;61798;48.048;-1.928;2023-08-31T10:33:23;100468.97;;;18.88;100.00
45050;BME280;61798;48.048;-1.928;2023-08-31T10:36:03;100468.47;;;18.91;100.00
45050;BME280;61798;48.048;-1.928;2023-08-31T10:38:32;100469.72;;;18.83;100.00
45050;BME280;61798;48.048;-1.928;2023-08-31T10:40:40;100455.97;;;18.67;100.00
45050;BME280;61798;48.048;-1.928;2023-08-31T10:42:46;100466.97;;;18.78;100.00
45050;BME280;61798;48.048;-1.928;2023-08-31T10:45:05;100476.81;;;18.84;100.00
45050;BME280;61798;48.048;-1.928;2023-08-31T10:47:12;100455.59;;;18.81;100.00
45050;BME280;61798;48.048;-1.928;2023-08-31T10:49:22;100470.41;;;18.96;100.00
45050;BME280;61798;48.048;-1.928;2023-08-31T10:51:31;100446.50;;;18.92;100.00
45050;BME280;61798;48.048;-1.928;2023-08-31T10:53:38;100464.81;;;19.02;100.00
45050;BME280;61798;48.048;-1.928;2023-08-31T10:55:52;100462.78;;;18.92;100.00
45050;BME280;61798;48.048;-1.928;2023-08-31T10:58:00;100466.31;;;18.93;100.00
45050;BME280;61798;48.048;-1.928;2023-08-31T11:00:51;100472.47;;;19.33;100.00
45050;BME280;61798;48.048;-1.928;2023-08-31T11:03:02;100471.97;;;19.37;100.00
45050;BME280;61798;48.048;-1.928;2023-08-31T11:05:15;100477.44;;;19.75;100.00